Time;durP1;ratioP1;P1;durP2;ratioP2;P2;SDS_P1;SDS_P2;PMS_P1;PMS_P2;Temp;Humidity;BMP_temperature;BMP_pressure;BME280_temperature;BME280_humidity;BME280_pressure;Samples;Min_cycle;Max_cycle;Signal;HPM_P1;HPM_P2
2022/05/30 00:02:20;;;;;;;3.50;3.30;;;6.30;29.20;;;;;;4990797;28;20205;-68
2022/05/30 00:04:46;;;;;;;3.20;2.90;;;6.30;29.20;;;;;;4992403;28;20174;-68
2022/05/30 00:07:11;;;;;;;4.13;3.40;;;6.30;29.20;;;;;;4992394;28;20769;-67
2022/05/30 00:09:37;;;;;;;3.00;2.77;;;6.30;29.20;;;;;;4992668;28;20263;-68
2022/05/30 00:12:03;;;;;;;3.60;3.20;;;6.20;29.10;;;;;;4991960;28;20200;-68
2022/05/30 00:14:29;;;;;;;2.95;2.75;;;6.20;29.10;;;;;;4992622;28;20177;-68
2022/05/30 00:16:56;;;;;;;3.45;2.90;;;6.20;29.10;;;;;;4992755;28;20175;-68
2022/05/30 00:19:21;;;;;;;3.65;3.35;;;6.10;29.20;;;;;;4992475;28;20173;-68
2022/05/30 00:21:47;;;;;;;3.50;3.10;;;6.10;29.10;;;;;;4992097;28;20200;-67
2022/05/30 00:24:13;;;;;;;5.43;4.43;;;5.90;30.00;;;;;;4992229;28;20256;-67
2022/05/30 00:26:39;;;;;;;3.80;3.50;;;5.80;30.90;;;;;;4992502;28;20239;-68
2022/05/30 00:29:05;;;;;;;3.47;2.90;;;5.80;31.30;;;;;;4992498;28;20173;-68
2022/05/30 00:31:32;;;;;;;6.53;2.97;;;5.90;31.10;;;;;;4991895;28;20211;-67
2022/05/30 00:33:57;;;;;;;3.58;3.17;;;5.70;33.00;;;;;;4992241;28;20208;-67
2022/05/30 00:36:23;;;;;;;3.30;3.00;;;5.60;33.70;;;;;;4992077;28;20183;-67
2022/05/30 00:38:49;;;;;;;3.63;3.30;;;5.60;34.90;;;;;;4992240;28;20180;-67
2022/05/30 00:41:16;;;;;;;2.87;2.67;;;5.70;33.80;;;;;;4991804;28;20181;-67
2022/05/30 00:43:45;;;;;;;4.78;3.00;;;5.80;33.00;;;;;;4992108;28;20183;-68
2022/05/30 00:46:12;;;;;;;6.00;3.15;;;5.80;33.60;;;;;;4991973;28;20520;-67
2022/05/30 00:48:54;;;;;;;3.53;3.22;;;5.90;33.00;;;;;;4990707;28;20588;-68
2022/05/30 00:51:28;;;;;;;3.65;2.95;;;5.90;31.80;;;;;;4990497;28;20540;-67
2022/05/30 00:53:57;;;;;;;3.22;2.28;;;5.80;32.10;;;;;;4994736;28;20227;-67
2022/05/30 00:56:31;;;;;;;2.30;2.10;;;5.80;32.70;;;;;;4994522;28;20187;-67
2022/05/30 00:58:59;;;;;;;3.08;2.78;;;5.80;33.10;;;;;;4995316;28;20259;-67
2022/05/30 01:01:24;;;;;;;8.27;2.83;;;5.90;32.40;;;;;;4995311;28;20188;-68
2022/05/30 01:06:43;;;;;;;2.95;2.65;;;5.80;32.10;;;;;;4995719;28;20303;-67
2022/05/30 01:09:12;;;;;;;5.22;2.88;;;5.90;32.50;;;;;;4995310;28;20176;-68
2022/05/30 01:11:58;;;;;;;2.40;2.20;;;5.90;31.70;;;;;;4994901;28;20200;-67
2022/05/30 01:14:30;;;;;;;5.00;2.88;;;5.80;32.00;;;;;;4995455;28;20181;-67
2022/05/30 01:16:56;;;;;;;4.43;2.85;;;5.90;32.00;;;;;;4995166;28;20211;-67
2022/05/30 01:19:40;;;;;;;3.65;2.90;;;5.80;32.00;;;;;;4995130;28;20184;-67
2022/05/30 01:22:28;;;;;;;3.40;2.70;;;5.90;31.60;;;;;;4995034;28;20283;-70
2022/05/30 01:25:02;;;;;;;2.78;2.55;;;5.80;31.50;;;;;;4996340;28;20181;-68
2022/05/30 01:27:44;;;;;;;3.03;2.60;;;5.70;31.40;;;;;;4993741;28;20587;-67
2022/05/30 01:30:15;;;;;;;2.88;2.65;;;5.70;31.60;;;;;;4994994;28;20681;-67
2022/05/30 01:32:41;;;;;;;3.97;3.58;;;5.70;31.70;;;;;;4994565;28;20254;-68
2022/05/30 01:35:07;;;;;;;3.60;3.30;;;5.70;31.90;;;;;;4994807;28;20208;-67
2022/05/30 01:37:33;;;;;;;3.15;2.60;;;5.60;31.50;;;;;;4994976;28;20231;-67
2022/05/30 01:39:58;;;;;;;2.70;2.50;;;5.50;31.70;;;;;;4994971;28;20172;-67
2022/05/30 01:42:24;;;;;;;2.80;2.50;;;5.50;31.90;;;;;;4994371;28;20270;-66
2022/05/30 01:44:49;;;;;;;2.80;2.60;;;5.60;32.10;;;;;;4994930;28;20177;-67
2022/05/30 01:47:15;;;;;;;3.30;3.00;;;5.50;32.20;;;;;;4993386;28;20188;-67
2022/05/30 01:49:40;;;;;;;3.23;2.93;;;5.50;31.70;;;;;;4994619;28;20181;-67
2022/05/30 01:52:06;;;;;;;3.43;2.90;;;5.50;32.40;;;;;;5016882;22;20299;-66
2022/05/30 01:54:32;;;;;;;2.77;2.57;;;5.50;32.10;;;;;;4994993;28;20180;-66
2022/05/30 01:56:58;;;;;;;3.83;3.43;;;5.60;31.90;;;;;;4994576;28;20409;-66
2022/05/30 01:59:23;;;;;;;2.53;2.33;;;5.50;31.90;;;;;;4994577;28;20260;-67
2022/05/30 02:01:49;;;;;;;3.80;3.10;;;5.50;31.60;;;;;;4994361;28;20169;-67
2022/05/30 02:04:16;;;;;;;3.30;3.00;;;5.50;32.00;;;;;;4994289;28;20590;-66
2022/05/30 02:06:41;;;;;;;2.85;2.65;;;5.50;33.20;;;;;;4995623;28;20180;-65
2022/05/30 02:09:08;;;;;;;2.50;2.30;;;5.50;32.90;;;;;;4995730;28;20187;-66
2022/05/30 02:11:34;;;;;;;2.80;2.60;;;5.40;32.50;;;;;;4995863;28;20200;-66
2022/05/30 02:14:00;;;;;;;2.58;2.38;;;5.40;32.90;;;;;;4996215;28;20570;-66
2022/05/30 02:19:10;;;;;;;3.45;3.15;;;5.40;33.10;;;;;;4995391;28;20446;-66
2022/05/30 02:21:36;;;;;;;3.07;2.30;;;5.40;32.40;;;;;;4994538;28;20546;-66
2022/05/30 02:24:06;;;;;;;3.77;3.00;;;5.40;32.70;;;;;;4994745;28;20185;-66
2022/05/30 02:26:34;;;;;;;4.10;3.10;;;5.30;33.20;;;;;;4994280;28;20180;-68
2022/05/30 02:29:00;;;;;;;2.95;2.60;;;5.30;33.20;;;;;;4994267;28;20181;-66
2022/05/30 02:31:25;;;;;;;2.70;2.50;;;5.20;32.60;;;;;;4993069;28;20526;-65
2022/05/30 02:36:41;;;;;;;3.25;2.95;;;5.20;33.10;;;;;;4994277;28;20239;-66
2022/05/30 02:39:15;;;;;;;2.90;2.60;;;5.20;33.00;;;;;;4994419;28;20545;-66
2022/05/30 02:41:42;;;;;;;3.10;2.80;;;5.20;33.00;;;;;;4992374;28;20543;-66
2022/05/30 02:44:08;;;;;;;3.78;2.65;;;5.20;33.10;;;;;;4994008;28;20188;-65
2022/05/30 02:46:34;;;;;;;3.13;2.70;;;5.20;32.70;;;;;;4993821;28;20180;-68
2022/05/30 02:49:00;;;;;;;4.23;3.40;;;5.10;33.00;;;;;;4993874;28;20188;-64
2022/05/30 02:51:26;;;;;;;5.10;3.80;;;5.20;32.70;;;;;;4993557;28;20451;-68
2022/05/30 02:53:52;;;;;;;3.95;2.60;;;5.10;32.50;;;;;;4993647;28;20216;-67
2022/05/30 02:56:17;;;;;;;3.00;2.80;;;5.10;32.60;;;;;;4993623;28;20613;-67
2022/05/30 02:58:44;;;;;;;2.23;2.03;;;5.00;32.60;;;;;;4993433;28;20177;-67
2022/05/30 03:01:10;;;;;;;4.22;3.70;;;5.00;32.50;;;;;;4993569;28;20179;-66
2022/05/30 03:03:36;;;;;;;3.28;3.00;;;4.90;32.90;;;;;;4991987;28;20244;-67
2022/05/30 03:06:02;;;;;;;2.57;2.37;;;4.90;32.90;;;;;;4992089;28;20208;-68
2022/05/30 03:08:28;;;;;;;8.82;3.00;;;4.80;32.80;;;;;;4993392;28;20186;-67
2022/05/30 03:10:53;;;;;;;3.57;3.07;;;4.70;32.70;;;;;;4992065;28;20279;-67
2022/05/30 03:13:19;;;;;;;5.53;2.53;;;4.70;32.80;;;;;;4992827;28;20220;-67
2022/05/30 03:15:45;;;;;;;2.70;2.50;;;4.70;32.70;;;;;;4992817;28;20608;-67
2022/05/30 03:18:10;;;;;;;2.80;2.60;;;4.70;32.70;;;;;;4993016;28;20300;-67
2022/05/30 03:20:36;;;;;;;3.33;3.03;;;4.70;32.70;;;;;;4993598;28;20192;-67
2022/05/30 03:23:02;;;;;;;3.60;3.13;;;4.70;33.10;;;;;;4992820;28;20200;-67
2022/05/30 03:25:27;;;;;;;4.03;3.20;;;4.80;32.90;;;;;;4993248;28;20470;-67
2022/05/30 03:27:55;;;;;;;3.00;2.30;;;4.70;32.70;;;;;;4993173;28;20196;-67
2022/05/30 03:30:22;;;;;;;3.72;2.70;;;4.70;32.70;;;;;;4992863;28;20708;-67
2022/05/30 03:32:47;;;;;;;3.00;2.70;;;4.60;32.90;;;;;;4991328;28;20254;-67
2022/05/30 03:35:13;;;;;;;3.50;3.20;;;4.60;33.60;;;;;;4992938;28;20181;-67
2022/05/30 03:37:40;;;;;;;3.60;2.73;;;4.60;33.40;;;;;;4992913;28;20172;-70
2022/05/30 03:40:07;;;;;;;3.97;2.75;;;4.60;33.30;;;;;;4993153;28;20259;-66
2022/05/30 03:42:33;;;;;;;3.45;3.03;;;4.60;33.20;;;;;;4992356;28;20291;-66
2022/05/30 03:44:59;;;;;;;2.97;2.60;;;4.60;33.70;;;;;;4992772;28;20258;-66
2022/05/30 03:47:25;;;;;;;3.60;3.27;;;4.70;33.70;;;;;;4992875;28;20215;-67
2022/05/30 03:49:59;;;;;;;3.05;2.75;;;4.80;32.90;;;;;;4992728;28;20200;-67
2022/05/30 03:52:24;;;;;;;3.00;2.17;;;4.80;32.80;;;;;;4992343;28;20224;-66
2022/05/30 03:54:50;;;;;;;3.10;2.80;;;4.80;32.90;;;;;;4992762;28;20720;-67
2022/05/30 03:57:15;;;;;;;3.13;2.83;;;5.00;33.00;;;;;;4992637;28;20665;-66
2022/05/30 03:59:41;;;;;;;5.33;3.03;;;4.90;32.90;;;;;;4991503;28;20180;-66
2022/05/30 04:02:06;;;;;;;5.07;2.40;;;4.90;32.90;;;;;;4992461;28;20204;-66
2022/05/30 04:04:32;;;;;;;5.83;3.23;;;4.80;33.10;;;;;;4992598;28;20264;-66
2022/05/30 04:06:57;;;;;;;3.17;2.90;;;4.90;33.10;;;;;;4992630;28;20192;-68
2022/05/30 04:09:23;;;;;;;3.67;3.23;;;4.90;33.20;;;;;;4992708;28;20798;-67
2022/05/30 04:11:48;;;;;;;3.80;2.70;;;5.00;33.00;;;;;;4992085;28;20700;-67
2022/05/30 04:14:14;;;;;;;4.00;2.90;;;5.00;33.00;;;;;;4992327;28;20208;-67
2022/05/30 04:16:40;;;;;;;5.80;3.07;;;5.10;33.00;;;;;;4992454;28;20194;-68
2022/05/30 04:19:05;;;;;;;4.47;4.07;;;5.10;32.50;;;;;;4992555;28;20172;-66
2022/05/30 04:21:31;;;;;;;3.13;2.83;;;5.20;32.80;;;;;;4991047;28;20255;-66
2022/05/30 04:23:56;;;;;;;2.60;2.40;;;5.20;33.10;;;;;;4992270;28;20192;-66
2022/05/30 04:26:22;;;;;;;3.27;2.97;;;5.20;32.50;;;;;;4992583;28;20177;-67
2022/05/30 04:28:48;;;;;;;4.23;3.20;;;5.30;32.20;;;;;;4995128;28;20184;-66
2022/05/30 04:31:14;;;;;;;2.77;2.57;;;5.30;32.00;;;;;;4995960;28;20933;-67
2022/05/30 04:33:40;;;;;;;3.60;3.20;;;5.30;32.40;;;;;;4996104;28;20771;-67
2022/05/30 04:36:08;;;;;;;3.70;2.60;;;5.30;32.20;;;;;;4996016;28;20411;-67
2022/05/30 04:38:34;;;;;;;3.03;2.78;;;5.40;31.80;;;;;;4996110;28;20231;-65
2022/05/30 04:41:00;;;;;;;3.73;3.37;;;5.50;30.90;;;;;;4996203;28;20169;-66
2022/05/30 04:43:25;;;;;;;3.40;3.10;;;5.60;31.10;;;;;;4995720;28;20431;-65
2022/05/30 04:46:14;;;;;;;3.73;3.43;;;5.60;31.30;;;;;;4995879;28;20412;-66
2022/05/30 04:48:41;;;;;;;3.25;2.42;;;5.60;31.50;;;;;;4996068;28;20181;-65
2022/05/30 04:51:06;;;;;;;4.60;3.10;;;5.70;31.60;;;;;;4994760;28;20239;-65
2022/05/30 04:53:33;;;;;;;4.57;3.03;;;5.80;32.40;;;;;;4994090;28;20257;-66
2022/05/30 04:55:59;;;;;;;2.63;2.43;;;6.70;35.40;;;;;;4995999;28;20586;-66
2022/05/30 04:58:25;;;;;;;4.97;4.60;;;8.40;30.50;;;;;;4995842;28;20459;-66
2022/05/30 05:00:57;;;;;;;7.87;7.33;;;10.30;22.80;;;;;;4995884;28;20419;-67
2022/05/30 05:03:23;;;;;;;9.47;8.97;;;12.10;20.40;;;;;;4995278;28;20450;-66
2022/05/30 05:05:48;;;;;;;11.67;10.97;;;13.60;17.40;;;;;;4995583;28;20419;-67
2022/05/30 05:08:14;;;;;;;14.00;13.30;;;15.10;14.90;;;;;;4995564;28;20195;-67
2022/05/30 05:10:46;;;;;;;14.13;13.50;;;16.30;10.80;;;;;;4995482;28;20183;-68
2022/05/30 05:13:12;;;;;;;14.67;14.00;;;17.40;9.30;;;;;;4994961;28;20295;-67
2022/05/30 05:15:37;;;;;;;14.03;13.43;;;18.50;9.30;;;;;;4978012;28;20868;-67
2022/05/30 05:18:04;;;;;;;14.33;13.73;;;19.10;7.00;;;;;;4994129;28;20812;-66
2022/05/30 05:20:29;;;;;;;14.90;14.20;;;19.90;4.90;;;;;;4995409;28;20177;-68
2022/05/30 05:22:55;;;;;;;14.40;13.83;;;20.60;4.20;;;;;;4994716;28;20478;-68
2022/05/30 05:25:21;;;;;;;14.70;14.20;;;21.60;4.10;;;;;;4994991;28;20169;-67
2022/05/30 05:27:50;;;;;;;15.13;14.50;;;22.40;2.30;;;;;;4995197;28;20423;-67
2022/05/30 05:30:16;;;;;;;14.27;13.70;;;23.30;1.00;;;;;;4995277;28;20177;-70
2022/05/30 05:32:41;;;;;;;15.87;15.07;;;23.90;1.00;;;;;;4993362;28;20567;-68
2022/05/30 05:35:07;;;;;;;16.33;15.13;;;24.60;1.00;;;;;;4995175;28;20499;-67
2022/05/30 05:37:34;;;;;;;15.00;14.40;;;25.30;1.00;;;;;;4993795;28;20177;-67
2022/05/30 05:40:00;;;;;;;17.17;16.07;;;25.80;1.00;;;;;;4993496;28;20416;-67
2022/05/30 05:42:25;;;;;;;14.60;14.10;;;26.00;1.00;;;;;;4986544;28;20478;-67
2022/05/30 05:44:51;;;;;;;15.33;14.73;;;25.40;1.00;;;;;;4994718;28;20181;-68
2022/05/30 05:47:16;;;;;;;14.60;14.10;;;25.50;1.00;;;;;;4994906;28;20322;-67
2022/05/30 05:49:42;;;;;;;15.97;15.17;;;25.50;1.00;;;;;;4994900;28;20754;-67
2022/05/30 05:52:08;;;;;;;15.90;14.80;;;25.90;1.00;;;;;;4980819;28;20244;-67
2022/05/30 05:54:33;;;;;;;15.30;14.70;;;25.60;1.00;;;;;;4975062;28;20249;-67
2022/05/30 05:56:59;;;;;;;14.87;14.30;;;25.70;1.00;;;;;;4975120;28;20181;-67
2022/05/30 05:59:24;;;;;;;14.97;14.37;;;26.20;1.00;;;;;;4975067;28;20184;-66
2022/05/30 06:01:50;;;;;;;15.17;14.57;;;26.90;1.00;;;;;;4974852;28;20667;-67
2022/05/30 06:04:16;;;;;;;14.37;13.77;;;26.70;1.00;;;;;;4986299;28;20558;-69
2022/05/30 06:06:43;;;;;;;13.93;13.17;;;27.30;1.00;;;;;;4994281;28;20415;-67
2022/05/30 06:09:08;;;;;;;14.60;14.00;;;27.70;1.00;;;;;;4989097;28;20428;-67
2022/05/30 06:11:35;;;;;;;14.63;14.03;;;28.10;1.00;;;;;;4982764;28;20984;-67
2022/05/30 06:14:00;;;;;;;14.10;13.50;;;28.40;1.00;;;;;;4994204;28;20693;-67
2022/05/30 06:16:29;;;;;;;14.23;13.53;;;28.60;1.00;;;;;;4994292;28;20426;-67
2022/05/30 06:18:56;;;;;;;14.30;13.50;;;28.90;1.00;;;;;;4994290;28;20176;-67
2022/05/30 06:21:24;;;;;;;13.93;13.40;;;29.40;1.00;;;;;;4987346;28;20421;-67
2022/05/30 06:23:54;;;;;;;13.03;12.53;;;28.90;1.00;;;;;;4974402;28;20452;-67
2022/05/30 06:26:21;;;;;;;13.60;13.10;;;29.10;1.00;;;;;;4974485;28;20421;-67
2022/05/30 06:28:47;;;;;;;13.93;13.33;;;29.20;1.00;;;;;;4974706;28;20424;-67
2022/05/30 06:31:19;;;;;;;13.77;12.97;;;29.70;1.00;;;;;;4975232;28;20423;-67
2022/05/30 06:33:45;;;;;;;13.50;12.83;;;29.20;1.00;;;;;;4994143;28;20459;-67
2022/05/30 06:36:15;;;;;;;13.60;13.10;;;28.70;1.00;;;;;;4993998;28;20419;-67
2022/05/30 06:38:42;;;;;;;14.33;13.73;;;29.30;1.00;;;;;;4993672;28;20424;-67
2022/05/30 06:41:30;;;;;;;14.63;14.00;;;28.00;1.00;;;;;;4993169;28;20430;-67
2022/05/30 06:43:58;;;;;;;13.90;13.30;;;26.90;1.00;;;;;;4974207;28;20556;-68
2022/05/30 06:46:24;;;;;;;14.57;13.67;;;25.90;1.00;;;;;;4974285;28;20567;-68
2022/05/30 06:48:56;;;;;;;14.10;13.40;;;24.20;1.00;;;;;;4974257;28;20460;-66
2022/05/30 06:51:23;;;;;;;13.60;13.00;;;23.40;1.00;;;;;;4973832;28;20898;-66
2022/05/30 06:53:48;;;;;;;13.80;13.20;;;22.80;1.00;;;;;;4977317;28;20582;-66
2022/05/30 06:56:17;;;;;;;13.10;12.60;;;21.00;1.00;;;;;;4994041;28;20520;-67
2022/05/30 06:58:47;;;;;;;13.17;12.47;;;18.70;1.00;;;;;;4993407;28;20296;-65
2022/05/30 07:01:13;;;;;;;11.70;11.30;;;19.40;1.00;;;;;;4993000;28;20432;-66
2022/05/30 07:03:40;;;;;;;14.00;13.20;;;20.00;1.00;;;;;;4993366;28;20435;-68
2022/05/30 07:06:10;;;;;;;13.23;12.73;;;19.50;1.00;;;;;;4986098;28;20805;-66
2022/05/30 07:08:36;;;;;;;12.53;12.03;;;20.20;1.00;;;;;;4973847;28;20507;-66
2022/05/30 07:11:02;;;;;;;13.77;13.00;;;21.00;1.00;;;;;;4973763;28;20443;-66
2022/05/30 07:13:28;;;;;;;13.80;12.90;;;22.10;1.00;;;;;;4973652;28;20453;-66
2022/05/30 07:15:55;;;;;;;13.60;12.90;;;23.50;1.00;;;;;;4979219;28;20427;-68
2022/05/30 07:18:20;;;;;;;13.90;13.40;;;23.50;1.00;;;;;;4993064;28;20439;-68
2022/05/30 07:20:53;;;;;;;13.40;12.70;;;24.70;1.00;;;;;;4993063;28;20462;-67
2022/05/30 07:23:19;;;;;;;14.33;13.63;;;25.80;1.00;;;;;;4990125;28;20201;-66
2022/05/30 07:25:45;;;;;;;13.30;12.80;;;26.00;1.00;;;;;;4981708;28;20430;-66
2022/05/30 07:28:12;;;;;;;14.00;13.37;;;26.70;1.00;;;;;;4992807;28;20502;-67
2022/05/30 07:30:38;;;;;;;13.20;12.70;;;25.40;1.00;;;;;;4991449;28;20188;-67
2022/05/30 07:33:04;;;;;;;13.70;13.10;;;26.10;1.00;;;;;;4992347;28;20471;-67
2022/05/30 07:35:30;;;;;;;14.20;13.60;;;26.80;1.00;;;;;;4992635;28;20840;-67
2022/05/30 07:37:55;;;;;;;13.33;12.73;;;23.10;1.00;;;;;;4981123;28;20431;-67
2022/05/30 07:40:21;;;;;;;14.03;13.37;;;23.20;1.00;;;;;;4983740;28;20173;-67
2022/05/30 07:42:48;;;;;;;14.40;13.80;;;24.10;1.00;;;;;;4983267;28;20205;-67
2022/05/30 07:45:14;;;;;;;13.70;13.20;;;25.10;1.00;;;;;;4981468;28;20184;-67
2022/05/30 07:47:39;;;;;;;13.93;13.23;;;25.70;1.00;;;;;;4992143;28;20432;-65
2022/05/30 07:50:06;;;;;;;13.23;12.63;;;25.90;1.00;;;;;;4992544;28;20455;-66
2022/05/30 07:52:32;;;;;;;13.70;13.10;;;25.00;1.00;;;;;;5007574;23;20204;-68
2022/05/30 07:54:58;;;;;;;13.73;12.83;;;25.50;1.00;;;;;;5009269;28;20423;-68
2022/05/30 08:00:10;;;;;;;13.70;13.07;;;25.40;1.00;;;;;;5007297;28;20486;-68
2022/05/30 08:02:37;;;;;;;13.47;12.97;;;25.20;1.00;;;;;;5010128;28;20482;-67
2022/05/30 08:05:04;;;;;;;13.13;12.63;;;24.90;1.00;;;;;;4996446;28;20486;-67
2022/05/30 08:07:29;;;;;;;13.20;12.70;;;22.80;1.00;;;;;;4996845;28;20411;-67
2022/05/30 08:09:55;;;;;;;13.80;13.13;;;23.40;1.00;;;;;;4984259;28;20811;-72
2022/05/30 08:12:20;;;;;;;13.20;12.70;;;23.20;1.00;;;;;;4975419;28;20208;-72
2022/05/30 08:14:46;;;;;;;13.60;13.10;;;23.90;1.00;;;;;;4977097;28;20189;-73
2022/05/30 08:17:11;;;;;;;13.37;12.43;;;24.50;1.00;;;;;;4992465;28;20181;-71
2022/05/30 08:19:40;;;;;;;12.70;12.20;;;22.80;1.00;;;;;;4996396;28;20532;-72
2022/05/30 08:22:07;;;;;;;13.63;13.03;;;23.10;1.00;;;;;;4996030;28;20169;-71
2022/05/30 08:24:40;;;;;;;14.70;13.70;;;23.10;1.00;;;;;;4995378;28;20522;-71
2022/05/30 08:27:06;;;;;;;13.93;13.10;;;23.20;1.00;;;;;;4996356;28;20418;-72
2022/05/30 08:29:32;;;;;;;14.13;13.47;;;23.40;1.00;;;;;;4996301;28;20792;-73
2022/05/30 08:31:57;;;;;;;12.57;11.97;;;22.60;1.00;;;;;;4995969;28;20172;-72
2022/05/30 08:34:23;;;;;;;13.70;13.20;;;22.80;1.00;;;;;;4996012;28;20518;-72
2022/05/30 08:36:48;;;;;;;13.57;12.97;;;21.20;1.00;;;;;;4995868;28;20177;-71
2022/05/30 08:42:00;;;;;;;13.90;13.00;;;19.80;1.00;;;;;;4995771;28;20219;-71
2022/05/30 08:44:30;;;;;;;13.90;13.30;;;20.20;1.00;;;;;;4995802;28;20443;-71
2022/05/30 08:47:06;;;;;;;12.43;12.03;;;19.70;1.00;;;;;;4996474;28;20426;-73
2022/05/30 08:49:43;;;;;;;13.73;13.03;;;18.30;1.00;;;;;;4995873;28;20422;-72
2022/05/30 08:52:25;;;;;;;13.43;12.60;;;17.70;1.10;;;;;;4996263;28;20418;-73
2022/05/30 08:55:03;;;;;;;12.30;11.83;;;17.30;1.10;;;;;;4996895;28;20815;-73
2022/05/30 08:57:36;;;;;;;13.40;12.90;;;17.40;1.00;;;;;;4996622;28;20407;-71
2022/05/30 09:00:22;;;;;;;13.40;12.80;;;17.50;1.00;;;;;;4998877;28;20994;-70
2022/05/30 09:02:55;;;;;;;13.03;12.53;;;17.60;1.00;;;;;;4995339;28;20436;-71
2022/05/30 09:05:41;;;;;;;12.67;12.17;;;;;;;;;;4995563;28;20411;-72
2022/05/30 09:08:13;;;;;;;13.80;13.20;;;17.00;1.00;;;;;;4995709;28;20415;-70
2022/05/30 09:11:07;;;;;;;13.30;12.70;;;15.60;1.10;;;;;;4994894;28;20422;-71
2022/05/30 09:13:44;;;;;;;12.80;12.30;;;15.70;1.80;;;;;;4994360;28;20498;-71
2022/05/30 09:16:13;;;;;;;13.30;12.70;;;15.50;1.10;;;;;;4995185;28;20448;-72
2022/05/30 09:18:45;;;;;;;12.83;12.33;;;15.60;1.00;;;;;;4995655;28;20419;-71
2022/05/30 09:21:15;;;;;;;12.70;12.20;;;15.80;1.00;;;;;;4994974;28;20435;-73
2022/05/30 09:23:41;;;;;;;14.10;13.50;;;16.10;1.00;;;;;;4995301;28;20462;-72
2022/05/30 09:26:12;;;;;;;13.20;12.70;;;16.00;1.00;;;;;;4995670;28;20425;-72
2022/05/30 09:28:41;;;;;;;12.90;12.30;;;15.70;1.00;;;;;;4995189;28;20893;-73
2022/05/30 09:31:46;;;;;;;12.53;12.03;;;15.70;1.00;;;;;;4995142;28;20968;-72
2022/05/30 09:34:38;;;;;;;13.40;12.90;;;15.60;1.00;;;;;;4984029;28;20568;-71
2022/05/30 09:37:05;;;;;;;13.60;12.70;;;15.90;1.00;;;;;;4995160;28;20435;-71
2022/05/30 09:39:42;;;;;;;12.93;12.37;;;15.70;1.00;;;;;;4994965;28;20473;-70
2022/05/30 09:42:30;;;;;;;12.93;12.33;;;15.50;1.00;;;;;;4994669;28;20415;-70
2022/05/30 09:45:12;;;;;;;12.90;12.40;;;15.50;1.00;;;;;;4997513;28;20415;-71
2022/05/30 09:47:56;;;;;;;12.57;12.07;;;15.50;1.00;;;;;;4994088;28;20430;-71
2022/05/30 09:50:22;;;;;;;12.90;12.50;;;15.30;1.00;;;;;;4995256;28;20423;-70
2022/05/30 09:52:48;;;;;;;13.53;12.93;;;15.50;1.00;;;;;;4994448;28;20481;-71
2022/05/30 09:55:37;;;;;;;12.80;12.20;;;15.50;1.00;;;;;;4993638;28;20844;-70
2022/05/30 09:58:07;;;;;;;13.00;12.40;;;15.30;1.00;;;;;;4995035;28;20178;-70
2022/05/30 10:00:49;;;;;;;12.70;12.20;;;15.20;1.00;;;;;;4994087;28;20423;-72
2022/05/30 10:03:31;;;;;;;12.13;11.53;;;15.30;1.00;;;;;;4993204;28;20451;-72
2022/05/30 10:06:18;;;;;;;12.43;11.93;;;15.40;1.00;;;;;;4993576;28;20433;-72
2022/05/30 10:08:46;;;;;;;12.27;11.77;;;15.60;1.00;;;;;;4994533;28;20520;-71
2022/05/30 10:11:32;;;;;;;13.00;12.40;;;15.60;1.00;;;;;;4994634;28;20422;-70
2022/05/30 10:13:57;;;;;;;12.07;11.57;;;15.60;1.00;;;;;;4994888;28;20459;-72
2022/05/30 10:16:35;;;;;;;12.57;11.97;;;15.70;1.00;;;;;;4995108;28;20420;-71
2022/05/30 10:19:04;;;;;;;13.27;12.47;;;15.30;1.00;;;;;;4995224;28;20182;-71
2022/05/30 10:31:00;;;;;;;13.90;13.20;;;15.40;1.00;;;;;;4994940;28;20428;-71
2022/05/30 10:33:43;;;;;;;12.43;11.80;;;15.70;1.00;;;;;;4993974;28;20471;-71
2022/05/30 10:37:00;;;;;;;12.67;12.17;;;15.90;1.00;;;;;;4993168;28;20431;-71
2022/05/30 10:39:59;;;;;;;12.60;12.00;;;16.10;1.00;;;;;;4982592;28;20459;-71
2022/05/30 10:42:50;;;;;;;11.50;11.00;;;15.90;1.00;;;;;;4994626;28;20430;-71
2022/05/30 10:45:28;;;;;;;12.10;11.57;;;15.70;1.00;;;;;;4994273;28;20427;-71
2022/05/30 10:47:55;;;;;;;12.93;12.43;;;16.00;1.00;;;;;;4994240;28;20939;-71
2022/05/30 10:50:46;;;;;;;13.13;12.50;;;16.00;1.00;;;;;;4993906;28;20426;-71
2022/05/30 10:53:48;;;;;;;12.60;12.10;;;16.10;1.00;;;;;;4993242;28;20486;-70
2022/05/30 10:56:35;;;;;;;12.63;12.00;;;16.20;1.00;;;;;;4989457;28;20423;-69
2022/05/30 10:59:16;;;;;;;12.90;12.40;;;16.20;1.00;;;;;;4987400;28;20967;-71
2022/05/30 11:01:51;;;;;;;13.83;12.43;;;16.30;1.00;;;;;;4993730;28;20407;-70
2022/05/30 11:04:41;;;;;;;12.13;11.63;;;16.50;1.00;;;;;;4992811;28;20468;-71
2022/05/30 11:07:39;;;;;;;12.87;12.37;;;16.30;1.00;;;;;;4993321;28;20781;-70
2022/05/30 11:10:10;;;;;;;13.07;12.30;;;16.30;1.00;;;;;;4993549;28;20419;-70
2022/05/30 11:12:40;;;;;;;12.57;12.10;;;16.60;1.00;;;;;;4991973;28;20558;-70
2022/05/30 11:15:23;;;;;;;12.73;12.23;;;16.60;1.00;;;;;;4993697;28;20416;-70
2022/05/30 11:18:17;;;;;;;13.70;13.10;;;16.80;1.00;;;;;;4993862;28;20419;-70
2022/05/30 11:20:51;;;;;;;12.43;12.03;;;17.00;1.00;;;;;;4993952;28;20408;-72
2022/05/30 11:23:18;;;;;;;12.07;11.63;;;17.30;1.00;;;;;;4991834;28;20492;-70
2022/05/30 11:26:25;;;;;;;13.10;12.30;;;17.60;1.00;;;;;;4993362;28;20416;-69
2022/05/30 11:29:08;;;;;;;13.07;12.47;;;17.90;1.00;;;;;;4960651;28;20469;-70
2022/05/30 11:31:45;;;;;;;13.30;12.80;;;18.00;1.00;;;;;;4993052;28;20415;-70
2022/05/30 11:34:26;;;;;;;13.47;12.87;;;17.50;1.00;;;;;;4993675;28;20520;-69
2022/05/30 11:37:14;;;;;;;13.00;12.30;;;17.10;1.00;;;;;;4993460;28;20466;-69
2022/05/30 11:39:44;;;;;;;12.87;12.37;;;17.20;1.00;;;;;;4995910;28;20416;-70
2022/05/30 11:42:35;;;;;;;13.20;12.70;;;17.60;1.00;;;;;;4993050;28;21415;-70
2022/05/30 11:45:21;;;;;;;13.37;12.87;;;17.90;1.00;;;;;;4992951;28;20447;-70
2022/05/30 11:48:06;;;;;;;13.00;12.50;;;17.60;1.00;;;;;;4992809;28;20400;-70
2022/05/30 11:50:49;;;;;;;13.13;12.53;;;17.70;1.00;;;;;;4992745;28;20404;-70
2022/05/30 11:53:37;;;;;;;13.20;12.70;;;18.00;1.00;;;;;;4991269;28;21092;-71
2022/05/30 11:56:25;;;;;;;13.03;12.53;;;18.30;1.00;;;;;;4992541;28;20820;-71
2022/05/30 11:59:18;;;;;;;13.70;13.10;;;18.60;1.00;;;;;;4993183;28;20412;-71
2022/05/30 12:01:49;;;;;;;13.40;12.90;;;18.60;1.00;;;;;;4992759;28;20418;-70
2022/05/30 12:04:21;;;;;;;13.43;12.83;;;17.80;1.00;;;;;;4992769;28;20436;-69
2022/05/30 12:06:58;;;;;;;12.40;11.90;;;17.30;1.00;;;;;;4992721;28;20420;-71
2022/05/30 12:09:49;;;;;;;13.00;12.50;;;17.70;1.00;;;;;;4992850;28;20461;-69
2022/05/30 12:12:29;;;;;;;13.30;12.43;;;17.80;1.00;;;;;;4992248;28;20928;-70
2022/05/30 12:15:21;;;;;;;13.30;12.80;;;18.00;1.00;;;;;;4992949;28;20486;-70
2022/05/30 12:24:06;;;;;;;13.20;12.70;;;18.10;1.00;;;;;;4992525;28;20442;-69
2022/05/30 12:26:48;;;;;;;13.23;12.73;;;18.10;1.00;;;;;;4992898;28;20424;-69
2022/05/30 12:29:35;;;;;;;13.90;13.30;;;17.90;1.00;;;;;;4991563;28;20451;-69
2022/05/30 12:32:32;;;;;;;13.77;12.83;;;18.10;1.00;;;;;;4992169;28;20407;-70
2022/05/30 12:35:01;;;;;;;14.00;13.37;;;17.80;1.00;;;;;;4989303;28;20435;-70
2022/05/30 12:37:44;;;;;;;13.07;12.57;;;17.70;1.00;;;;;;4992217;28;20404;-70
2022/05/30 12:40:27;;;;;;;14.40;13.43;;;18.00;1.00;;;;;;4992398;28;20803;-70
2022/05/30 12:43:33;;;;;;;14.07;13.50;;;18.10;1.00;;;;;;4992069;28;20428;-70
2022/05/30 12:45:58;;;;;;;12.90;12.40;;;17.90;1.00;;;;;;4992446;28;20466;-69
2022/05/30 12:48:35;;;;;;;12.60;12.10;;;18.00;1.00;;;;;;4991701;28;20412;-71
2022/05/30 12:51:11;;;;;;;12.90;12.40;;;17.80;1.00;;;;;;4996330;28;20199;-71
2022/05/30 12:53:55;;;;;;;13.57;13.07;;;18.20;1.00;;;;;;4995613;28;20471;-71
2022/05/30 12:56:43;;;;;;;13.87;13.37;;;18.20;1.00;;;;;;4996064;28;20438;-70
2022/05/30 12:59:11;;;;;;;13.93;13.30;;;18.60;1.00;;;;;;4996064;28;20462;-72
2022/05/30 13:01:42;;;;;;;14.03;13.53;;;19.00;1.00;;;;;;4995476;28;20512;-71
2022/05/30 13:04:25;;;;;;;14.07;13.47;;;19.40;1.00;;;;;;4994544;28;20471;-72
2022/05/30 13:07:15;;;;;;;13.53;13.03;;;19.60;1.00;;;;;;4995868;28;20454;-70
2022/05/30 13:09:47;;;;;;;13.90;13.40;;;19.90;1.00;;;;;;4995441;28;20502;-71
2022/05/30 13:12:22;;;;;;;14.13;13.57;;;20.10;1.00;;;;;;4995361;28;20419;-74
2022/05/30 13:15:00;;;;;;;14.40;13.50;;;20.30;1.00;;;;;;4995487;28;20462;-72
2022/05/30 13:17:34;;;;;;;13.90;13.40;;;20.30;1.00;;;;;;4995389;28;20434;-72
2022/05/30 13:20:08;;;;;;;13.80;13.30;;;20.40;1.00;;;;;;4997246;28;21103;-73
2022/05/30 13:22:36;;;;;;;14.60;13.57;;;20.20;1.00;;;;;;4996589;28;20419;-71
2022/05/30 13:25:05;;;;;;;12.63;12.17;;;19.90;1.00;;;;;;4995649;28;20412;-70
2022/05/30 13:27:30;;;;;;;13.20;12.70;;;19.50;1.00;;;;;;4995513;28;20452;-71
2022/05/30 13:30:03;;;;;;;13.80;13.20;;;19.30;1.00;;;;;;4995197;28;20467;-72
2022/05/30 13:32:30;;;;;;;14.23;13.73;;;19.20;1.00;;;;;;4994622;28;20177;-71
2022/05/30 13:34:59;;;;;;;13.20;12.70;;;18.70;1.00;;;;;;4995012;28;20408;-72
2022/05/30 13:37:37;;;;;;;13.33;12.83;;;18.40;1.00;;;;;;4995116;28;20412;-70